sensor_id;sensor_type;location;lat;lon;timestamp;temperature;humidity
1546;DHT22;766;51.502;9.752;2022-07-25T00:00:42;21.90;99.90
1546;DHT22;766;51.502;9.752;2022-07-25T00:03:11;22.00;99.90
1546;DHT22;766;51.502;9.752;2022-07-25T00:05:44;22.20;99.90
1546;DHT22;766;51.502;9.752;2022-07-25T00:08:12;22.20;99.90
1546;DHT22;766;51.502;9.752;2022-07-25T00:10:43;22.20;99.90
1546;DHT22;766;51.502;9.752;2022-07-25T00:13:11;22.20;99.90
1546;DHT22;766;51.502;9.752;2022-07-25T00:15:40;22.20;99.90
1546;DHT22;766;51.502;9.752;2022-07-25T00:18:08;22.30;99.90
1546;DHT22;766;51.502;9.752;2022-07-25T00:20:37;22.30;99.90
1546;DHT22;766;51.502;9.752;2022-07-25T00:23:06;22.20;99.90
1546;DHT22;766;51.502;9.752;2022-07-25T00:25:37;22.20;99.90
1546;DHT22;766;51.502;9.752;2022-07-25T00:28:08;22.20;99.90
1546;DHT22;766;51.502;9.752;2022-07-25T00:30:36;22.20;99.90
1546;DHT22;766;51.502;9.752;2022-07-25T00:33:05;22.10;99.90
1546;DHT22;766;51.502;9.752;2022-07-25T00:35:33;22.10;99.90
1546;DHT22;766;51.502;9.752;2022-07-25T00:38:02;22.10;99.90
1546;DHT22;766;51.502;9.752;2022-07-25T00:40:30;22.00;99.90
1546;DHT22;766;51.502;9.752;2022-07-25T00:42:59;22.00;99.90
1546;DHT22;766;51.502;9.752;2022-07-25T00:45:29;22.00;99.90
1546;DHT22;766;51.502;9.752;2022-07-25T00:47:58;21.90;99.90
1546;DHT22;766;51.502;9.752;2022-07-25T00:50:27;21.90;99.90
1546;DHT22;766;51.502;9.752;2022-07-25T00:52:55;21.80;99.90
1546;DHT22;766;51.502;9.752;2022-07-25T00:55:24;21.80;99.90
1546;DHT22;766;51.502;9.752;2022-07-25T00:57:53;21.80;99.90
1546;DHT22;766;51.502;9.752;2022-07-25T01:00:22;21.90;99.90
1546;DHT22;766;51.502;9.752;2022-07-25T01:02:52;22.00;99.90
1546;DHT22;766;51.502;9.752;2022-07-25T01:05:21;21.90;99.90
1546;DHT22;766;51.502;9.752;2022-07-25T01:07:50;21.80;99.90
1546;DHT22;766;51.502;9.752;2022-07-25T01:10:19;21.90;99.90
1546;DHT22;766;51.502;9.752;2022-07-25T01:12:48;21.90;99.90
1546;DHT22;766;51.502;9.752;2022-07-25T01:15:17;22.00;99.90
1546;DHT22;766;51.502;9.752;2022-07-25T01:17:46;22.10;99.90
1546;DHT22;766;51.502;9.752;2022-07-25T01:20:16;22.10;99.90
1546;DHT22;766;51.502;9.752;2022-07-25T01:22:46;22.20;99.90
1546;DHT22;766;51.502;9.752;2022-07-25T01:25:17;22.20;99.90
1546;DHT22;766;51.502;9.752;2022-07-25T01:27:47;22.20;99.90
1546;DHT22;766;51.502;9.752;2022-07-25T01:30:22;22.20;99.90
1546;DHT22;766;51.502;9.752;2022-07-25T01:32:51;22.00;99.90
1546;DHT22;766;51.502;9.752;2022-07-25T01:35:21;22.10;99.90
1546;DHT22;766;51.502;9.752;2022-07-25T01:37:50;22.10;99.90
1546;DHT22;766;51.502;9.752;2022-07-25T01:40:18;22.20;99.90
1546;DHT22;766;51.502;9.752;2022-07-25T01:42:47;22.30;99.90
1546;DHT22;766;51.502;9.752;2022-07-25T01:45:16;22.20;99.90
1546;DHT22;766;51.502;9.752;2022-07-25T01:47:45;22.10;99.90
1546;DHT22;766;51.502;9.752;2022-07-25T01:50:14;22.00;99.90
1546;DHT22;766;51.502;9.752;2022-07-25T01:52:44;21.80;99.90
1546;DHT22;766;51.502;9.752;2022-07-25T01:55:14;21.70;99.90
1546;DHT22;766;51.502;9.752;2022-07-25T01:57:43;21.70;99.90
1546;DHT22;766;51.502;9.752;2022-07-25T02:00:17;21.60;99.90
1546;DHT22;766;51.502;9.752;2022-07-25T02:02:45;21.60;99.90
1546;DHT22;766;51.502;9.752;2022-07-25T02:05:14;21.40;99.90
1546;DHT22;766;51.502;9.752;2022-07-25T02:07:44;21.40;99.90
1546;DHT22;766;51.502;9.752;2022-07-25T02:10:13;21.40;99.90
1546;DHT22;766;51.502;9.752;2022-07-25T02:12:44;21.30;99.90
1546;DHT22;766;51.502;9.752;2022-07-25T02:15:13;21.20;99.90
1546;DHT22;766;51.502;9.752;2022-07-25T02:17:43;21.20;99.90
1546;DHT22;766;51.502;9.752;2022-07-25T02:20:13;21.30;99.90
1546;DHT22;766;51.502;9.752;2022-07-25T02:22:41;21.10;99.90
1546;DHT22;766;51.502;9.752;2022-07-25T02:25:12;21.10;99.90
1546;DHT22;766;51.502;9.752;2022-07-25T02:27:41;21.10;99.90
1546;DHT22;766;51.502;9.752;2022-07-25T02:30:12;20.90;99.90
1546;DHT22;766;51.502;9.752;2022-07-25T02:32:46;20.70;99.90
1546;DHT22;766;51.502;9.752;2022-07-25T02:35:16;20.50;99.90
1546;DHT22;766;51.502;9.752;2022-07-25T02:37:47;20.50;99.90
1546;DHT22;766;51.502;9.752;2022-07-25T02:40:20;20.40;99.90
1546;DHT22;766;51.502;9.752;2022-07-25T02:42:50;20.40;99.90
1546;DHT22;766;51.502;9.752;2022-07-25T02:45:22;20.40;99.90
1546;DHT22;766;51.502;9.752;2022-07-25T02:47:52;20.40;99.90
1546;DHT22;766;51.502;9.752;2022-07-25T02:50:25;20.30;99.90
1546;DHT22;766;51.502;9.752;2022-07-25T02:52:57;20.30;99.90
1546;DHT22;766;51.502;9.752;2022-07-25T02:55:31;20.30;99.90
1546;DHT22;766;51.502;9.752;2022-07-25T02:58:04;20.20;99.90
1546;DHT22;766;51.502;9.752;2022-07-25T03:00:35;20.20;99.90
1546;DHT22;766;51.502;9.752;2022-07-25T03:03:05;20.10;99.90
1546;DHT22;766;51.502;9.752;2022-07-25T03:05:34;20.10;99.90
1546;DHT22;766;51.502;9.752;2022-07-25T03:08:03;20.10;99.90
1546;DHT22;766;51.502;9.752;2022-07-25T03:10:33;20.10;99.90
1546;DHT22;766;51.502;9.752;2022-07-25T03:13:02;20.10;99.90
1546;DHT22;766;51.502;9.752;2022-07-25T03:15:32;20.10;99.90
1546;DHT22;766;51.502;9.752;2022-07-25T03:18:01;20.20;99.90
1546;DHT22;766;51.502;9.752;2022-07-25T03:20:29;20.30;99.90
1546;DHT22;766;51.502;9.752;2022-07-25T03:22:57;20.20;99.90
1546;DHT22;766;51.502;9.752;2022-07-25T03:25:26;20.10;99.90
1546;DHT22;766;51.502;9.752;2022-07-25T03:27:56;20.00;99.90
1546;DHT22;766;51.502;9.752;2022-07-25T03:30:27;20.00;99.90
1546;DHT22;766;51.502;9.752;2022-07-25T03:32:55;20.00;99.90
1546;DHT22;766;51.502;9.752;2022-07-25T03:35:28;19.90;99.90
1546;DHT22;766;51.502;9.752;2022-07-25T03:37:56;19.80;99.90
1546;DHT22;766;51.502;9.752;2022-07-25T03:40:25;19.70;99.90
1546;DHT22;766;51.502;9.752;2022-07-25T03:42:55;19.70;99.90
1546;DHT22;766;51.502;9.752;2022-07-25T03:45:24;19.60;99.90
1546;DHT22;766;51.502;9.752;2022-07-25T03:47:53;19.60;99.90
1546;DHT22;766;51.502;9.752;2022-07-25T03:50:21;19.60;99.90
1546;DHT22;766;51.502;9.752;2022-07-25T03:52:50;19.50;99.90
1546;DHT22;766;51.502;9.752;2022-07-25T03:55:18;19.50;99.90
1546;DHT22;766;51.502;9.752;2022-07-25T03:57:47;19.40;99.90
1546;DHT22;766;51.502;9.752;2022-07-25T04:00:17;19.20;99.90
1546;DHT22;766;51.502;9.752;2022-07-25T04:02:46;19.20;99.90
1546;DHT22;766;51.502;9.752;2022-07-25T04:05:14;19.30;99.90
1546;DHT22;766;51.502;9.752;2022-07-25T04:07:43;19.40;99.90
1546;DHT22;766;51.502;9.752;2022-07-25T04:10:11;19.40;99.90
1546;DHT22;766;51.502;9.752;2022-07-25T04:12:39;19.30;99.90
1546;DHT22;766;51.502;9.752;2022-07-25T04:15:08;19.20;99.90
1546;DHT22;766;51.502;9.752;2022-07-25T04:17:39;19.20;99.90
1546;DHT22;766;51.502;9.752;2022-07-25T04:20:09;19.20;99.90
1546;DHT22;766;51.502;9.752;2022-07-25T04:22:37;19.00;99.90
1546;DHT22;766;51.502;9.752;2022-07-25T04:25:12;18.70;99.90
1546;DHT22;766;51.502;9.752;2022-07-25T04:27:41;18.90;99.90
1546;DHT22;766;51.502;9.752;2022-07-25T04:30:11;19.00;99.90
1546;DHT22;766;51.502;9.752;2022-07-25T04:32:53;19.10;99.90
1546;DHT22;766;51.502;9.752;2022-07-25T04:35:22;19.20;99.90
1546;DHT22;766;51.502;9.752;2022-07-25T04:37:50;19.30;99.90
1546;DHT22;766;51.502;9.752;2022-07-25T04:40:19;19.40;99.90
1546;DHT22;766;51.502;9.752;2022-07-25T04:42:48;19.50;99.90
1546;DHT22;766;51.502;9.752;2022-07-25T04:45:16;19.70;99.90
1546;DHT22;766;51.502;9.752;2022-07-25T04:47:45;19.70;99.90
1546;DHT22;766;51.502;9.752;2022-07-25T04:50:15;19.80;99.90
1546;DHT22;766;51.502;9.752;2022-07-25T04:52:51;19.90;99.90
1546;DHT22;766;51.502;9.752;2022-07-25T04:55:21;20.00;99.90
1546;DHT22;766;51.502;9.752;2022-07-25T04:57:49;20.10;99.90
1546;DHT22;766;51.502;9.752;2022-07-25T05:00:18;20.30;99.90
1546;DHT22;766;51.502;9.752;2022-07-25T05:02:46;20.70;99.90
1546;DHT22;766;51.502;9.752;2022-07-25T05:05:16;20.60;99.90
1546;DHT22;766;51.502;9.752;2022-07-25T05:07:48;20.70;99.90
1546;DHT22;766;51.502;9.752;2022-07-25T05:10:17;20.90;99.90
1546;DHT22;766;51.502;9.752;2022-07-25T05:12:47;21.00;99.90
1546;DHT22;766;51.502;9.752;2022-07-25T05:15:17;21.20;99.90
1546;DHT22;766;51.502;9.752;2022-07-25T05:17:46;21.50;99.90
1546;DHT22;766;51.502;9.752;2022-07-25T05:20:15;21.60;99.90
1546;DHT22;766;51.502;9.752;2022-07-25T05:22:44;21.50;99.90
1546;DHT22;766;51.502;9.752;2022-07-25T05:25:13;21.70;99.90
1546;DHT22;766;51.502;9.752;2022-07-25T05:27:42;21.80;99.90
1546;DHT22;766;51.502;9.752;2022-07-25T05:30:12;21.90;99.90
1546;DHT22;766;51.502;9.752;2022-07-25T05:32:42;22.10;99.90
1546;DHT22;766;51.502;9.752;2022-07-25T05:35:11;22.40;99.90
1546;DHT22;766;51.502;9.752;2022-07-25T05:37:41;22.80;99.90
1546;DHT22;766;51.502;9.752;2022-07-25T05:40:10;23.00;99.90
1546;DHT22;766;51.502;9.752;2022-07-25T05:42:39;23.40;99.90
1546;DHT22;766;51.502;9.752;2022-07-25T05:45:09;23.90;99.90
1546;DHT22;766;51.502;9.752;2022-07-25T05:47:38;24.20;99.90
1546;DHT22;766;51.502;9.752;2022-07-25T05:50:07;24.20;99.90
1546;DHT22;766;51.502;9.752;2022-07-25T05:52:36;23.90;99.90
1546;DHT22;766;51.502;9.752;2022-07-25T05:55:07;24.10;99.90
1546;DHT22;766;51.502;9.752;2022-07-25T05:57:35;24.00;99.90
1546;DHT22;766;51.502;9.752;2022-07-25T06:00:06;23.90;99.90
1546;DHT22;766;51.502;9.752;2022-07-25T06:02:35;24.00;99.90
1546;DHT22;766;51.502;9.752;2022-07-25T06:05:05;24.20;99.90
1546;DHT22;766;51.502;9.752;2022-07-25T06:07:34;24.70;99.90
1546;DHT22;766;51.502;9.752;2022-07-25T06:10:03;25.20;99.90
1546;DHT22;766;51.502;9.752;2022-07-25T06:12:34;25.80;99.90
1546;DHT22;766;51.502;9.752;2022-07-25T06:15:06;26.10;99.90
1546;DHT22;766;51.502;9.752;2022-07-25T06:17:49;26.30;99.90
1546;DHT22;766;51.502;9.752;2022-07-25T06:20:18;26.70;99.90
1546;DHT22;766;51.502;9.752;2022-07-25T06:22:48;27.00;99.90
1546;DHT22;766;51.502;9.752;2022-07-25T06:25:16;27.30;99.90
1546;DHT22;766;51.502;9.752;2022-07-25T06:27:46;27.50;99.90
1546;DHT22;766;51.502;9.752;2022-07-25T06:30:15;27.80;99.90
1546;DHT22;766;51.502;9.752;2022-07-25T06:32:47;28.10;99.90
1546;DHT22;766;51.502;9.752;2022-07-25T06:35:16;27.80;99.90
1546;DHT22;766;51.502;9.752;2022-07-25T06:37:45;28.00;99.90
1546;DHT22;766;51.502;9.752;2022-07-25T06:40:17;28.50;99.90
1546;DHT22;766;51.502;9.752;2022-07-25T06:42:47;28.70;99.90
1546;DHT22;766;51.502;9.752;2022-07-25T06:45:16;28.70;99.90
1546;DHT22;766;51.502;9.752;2022-07-25T06:47:45;28.60;99.90
1546;DHT22;766;51.502;9.752;2022-07-25T06:50:16;28.70;99.90
1546;DHT22;766;51.502;9.752;2022-07-25T06:52:47;29.00;99.90
1546;DHT22;766;51.502;9.752;2022-07-25T06:55:17;29.20;99.90
1546;DHT22;766;51.502;9.752;2022-07-25T06:57:46;28.90;99.90
1546;DHT22;766;51.502;9.752;2022-07-25T07:00:15;29.00;99.90
1546;DHT22;766;51.502;9.752;2022-07-25T07:02:49;28.90;99.90
1546;DHT22;766;51.502;9.752;2022-07-25T07:05:18;29.00;99.90
1546;DHT22;766;51.502;9.752;2022-07-25T07:07:46;28.80;99.90
1546;DHT22;766;51.502;9.752;2022-07-25T07:10:16;28.80;99.90
1546;DHT22;766;51.502;9.752;2022-07-25T07:12:47;29.60;99.90
1546;DHT22;766;51.502;9.752;2022-07-25T07:15:16;30.00;99.90
1546;DHT22;766;51.502;9.752;2022-07-25T07:17:44;30.00;99.90
1546;DHT22;766;51.502;9.752;2022-07-25T07:20:14;30.00;99.90
1546;DHT22;766;51.502;9.752;2022-07-25T07:22:43;29.80;99.90
1546;DHT22;766;51.502;9.752;2022-07-25T07:25:13;30.10;99.90
1546;DHT22;766;51.502;9.752;2022-07-25T07:27:44;30.30;99.90
1546;DHT22;766;51.502;9.752;2022-07-25T07:30:15;30.70;99.90
1546;DHT22;766;51.502;9.752;2022-07-25T07:32:51;31.00;99.90
1546;DHT22;766;51.502;9.752;2022-07-25T07:35:23;31.40;99.90
1546;DHT22;766;51.502;9.752;2022-07-25T07:37:53;31.60;99.90
1546;DHT22;766;51.502;9.752;2022-07-25T07:40:22;31.60;99.90
1546;DHT22;766;51.502;9.752;2022-07-25T07:42:53;31.20;99.90
1546;DHT22;766;51.502;9.752;2022-07-25T07:45:24;31.70;99.90
1546;DHT22;766;51.502;9.752;2022-07-25T07:47:54;32.30;99.90
1546;DHT22;766;51.502;9.752;2022-07-25T07:50:26;32.40;99.90
1546;DHT22;766;51.502;9.752;2022-07-25T07:52:55;32.40;99.90
1546;DHT22;766;51.502;9.752;2022-07-25T07:55:24;32.90;99.90
1546;DHT22;766;51.502;9.752;2022-07-25T07:58:13;33.10;99.00
1546;DHT22;766;51.502;9.752;2022-07-25T08:00:46;32.60;99.60
1546;DHT22;766;51.502;9.752;2022-07-25T08:03:17;32.70;99.40
1546;DHT22;766;51.502;9.752;2022-07-25T08:05:47;32.30;99.40
1546;DHT22;766;51.502;9.752;2022-07-25T08:08:17;32.90;99.40
1546;DHT22;766;51.502;9.752;2022-07-25T08:10:47;33.20;98.80
1546;DHT22;766;51.502;9.752;2022-07-25T08:13:21;33.20;98.80
1546;DHT22;766;51.502;9.752;2022-07-25T08:15:53;33.30;99.00
1546;DHT22;766;51.502;9.752;2022-07-25T08:18:25;33.50;97.90
1546;DHT22;766;51.502;9.752;2022-07-25T08:20:55;33.20;98.60
1546;DHT22;766;51.502;9.752;2022-07-25T08:23:24;34.20;97.20
1546;DHT22;766;51.502;9.752;2022-07-25T08:25:54;34.50;96.30
1546;DHT22;766;51.502;9.752;2022-07-25T08:28:23;34.40;96.30
1546;DHT22;766;51.502;9.752;2022-07-25T08:30:54;34.40;96.80
1546;DHT22;766;51.502;9.752;2022-07-25T08:33:24;34.00;96.70
1546;DHT22;766;51.502;9.752;2022-07-25T08:35:54;34.10;97.20
1546;DHT22;766;51.502;9.752;2022-07-25T08:38:26;34.70;96.50
1546;DHT22;766;51.502;9.752;2022-07-25T08:40:57;34.40;95.20
1546;DHT22;766;51.502;9.752;2022-07-25T08:43:25;34.60;96.10
1546;DHT22;766;51.502;9.752;2022-07-25T08:46:01;35.00;95.40
1546;DHT22;766;51.502;9.752;2022-07-25T08:48:30;34.70;95.60
1546;DHT22;766;51.502;9.752;2022-07-25T08:50:59;34.80;95.50
1546;DHT22;766;51.502;9.752;2022-07-25T08:53:28;34.00;95.40
1546;DHT22;766;51.502;9.752;2022-07-25T08:56:00;34.00;95.60
1546;DHT22;766;51.502;9.752;2022-07-25T08:58:38;34.40;95.10
1546;DHT22;766;51.502;9.752;2022-07-25T09:01:10;34.60;94.10
1546;DHT22;766;51.502;9.752;2022-07-25T09:03:41;34.60;94.10
1546;DHT22;766;51.502;9.752;2022-07-25T09:06:15;33.90;95.20
1546;DHT22;766;51.502;9.752;2022-07-25T09:08:51;34.00;94.90
1546;DHT22;766;51.502;9.752;2022-07-25T09:11:28;34.70;94.20
1546;DHT22;766;51.502;9.752;2022-07-25T09:13:58;34.20;93.70
1546;DHT22;766;51.502;9.752;2022-07-25T09:16:31;33.40;94.60
1546;DHT22;766;51.502;9.752;2022-07-25T09:19:07;33.20;95.40
1546;DHT22;766;51.502;9.752;2022-07-25T09:21:38;33.30;95.10
1546;DHT22;766;51.502;9.752;2022-07-25T09:24:09;33.30;95.10
1546;DHT22;766;51.502;9.752;2022-07-25T09:26:46;33.40;94.60
1546;DHT22;766;51.502;9.752;2022-07-25T09:29:17;33.70;94.70
1546;DHT22;766;51.502;9.752;2022-07-25T09:31:47;33.60;94.90
1546;DHT22;766;51.502;9.752;2022-07-25T09:34:31;33.60;94.90
1546;DHT22;766;51.502;9.752;2022-07-25T09:37:02;33.50;94.80
1546;DHT22;766;51.502;9.752;2022-07-25T09:39:36;34.10;94.40
1546;DHT22;766;51.502;9.752;2022-07-25T09:42:18;33.90;94.40
1546;DHT22;766;51.502;9.752;2022-07-25T09:45:01;34.10;94.80
1546;DHT22;766;51.502;9.752;2022-07-25T09:47:33;34.60;93.70
1546;DHT22;766;51.502;9.752;2022-07-25T09:50:03;34.10;93.80
1546;DHT22;766;51.502;9.752;2022-07-25T09:52:32;34.50;94.20
1546;DHT22;766;51.502;9.752;2022-07-25T09:55:03;34.90;92.90
1546;DHT22;766;51.502;9.752;2022-07-25T09:57:32;35.20;93.10
1546;DHT22;766;51.502;9.752;2022-07-25T10:00:04;35.10;92.50
1546;DHT22;766;51.502;9.752;2022-07-25T10:02:40;35.00;92.90
1546;DHT22;766;51.502;9.752;2022-07-25T10:05:14;34.30;92.80
1546;DHT22;766;51.502;9.752;2022-07-25T10:07:45;33.90;92.90
1546;DHT22;766;51.502;9.752;2022-07-25T10:10:24;33.60;93.70
1546;DHT22;766;51.502;9.752;2022-07-25T10:13:06;33.50;93.60
1546;DHT22;766;51.502;9.752;2022-07-25T10:15:43;33.90;93.60
1546;DHT22;766;51.502;9.752;2022-07-25T10:18:14;34.00;93.70
1546;DHT22;766;51.502;9.752;2022-07-25T10:20:43;34.30;93.00
1546;DHT22;766;51.502;9.752;2022-07-25T10:23:19;34.20;92.80
1546;DHT22;766;51.502;9.752;2022-07-25T10:25:59;33.80;92.10
1546;DHT22;766;51.502;9.752;2022-07-25T10:28:39;33.20;92.80
1546;DHT22;766;51.502;9.752;2022-07-25T10:31:22;33.10;93.00
1546;DHT22;766;51.502;9.752;2022-07-25T10:33:54;33.20;92.90
1546;DHT22;766;51.502;9.752;2022-07-25T10:36:24;33.40;92.70
1546;DHT22;766;51.502;9.752;2022-07-25T10:38:57;33.30;92.80
1546;DHT22;766;51.502;9.752;2022-07-25T10:41:27;33.30;92.60
1546;DHT22;766;51.502;9.752;2022-07-25T10:43:59;33.30;92.70
1546;DHT22;766;51.502;9.752;2022-07-25T10:46:29;33.10;92.90
1546;DHT22;766;51.502;9.752;2022-07-25T10:49:05;33.10;92.50
1546;DHT22;766;51.502;9.752;2022-07-25T10:51:36;33.00;93.20
1546;DHT22;766;51.502;9.752;2022-07-25T10:54:12;33.00;91.90
1546;DHT22;766;51.502;9.752;2022-07-25T10:56:52;33.20;91.90
1546;DHT22;766;51.502;9.752;2022-07-25T10:59:33;33.50;92.30
1546;DHT22;766;51.502;9.752;2022-07-25T11:02:04;33.90;91.80
1546;DHT22;766;51.502;9.752;2022-07-25T11:04:35;34.30;91.70
1546;DHT22;766;51.502;9.752;2022-07-25T11:07:07;34.60;90.30
1546;DHT22;766;51.502;9.752;2022-07-25T11:09:39;34.60;90.80
1546;DHT22;766;51.502;9.752;2022-07-25T11:12:12;34.10;91.10
1546;DHT22;766;51.502;9.752;2022-07-25T11:14:42;33.70;91.10
1546;DHT22;766;51.502;9.752;2022-07-25T11:17:13;33.70;91.80
1546;DHT22;766;51.502;9.752;2022-07-25T11:19:52;33.90;91.30
1546;DHT22;766;51.502;9.752;2022-07-25T11:22:21;33.60;91.80
1546;DHT22;766;51.502;9.752;2022-07-25T11:24:50;33.50;91.20
1546;DHT22;766;51.502;9.752;2022-07-25T11:27:23;33.50;91.20
1546;DHT22;766;51.502;9.752;2022-07-25T11:30:04;33.50;91.70
1546;DHT22;766;51.502;9.752;2022-07-25T11:32:38;34.00;91.60
1546;DHT22;766;51.502;9.752;2022-07-25T11:35:10;34.20;91.20
1546;DHT22;766;51.502;9.752;2022-07-25T11:37:41;34.20;90.60
1546;DHT22;766;51.502;9.752;2022-07-25T11:40:10;33.90;91.40
1546;DHT22;766;51.502;9.752;2022-07-25T11:42:45;34.10;91.00
1546;DHT22;766;51.502;9.752;2022-07-25T11:45:16;34.10;91.00
1546;DHT22;766;51.502;9.752;2022-07-25T11:47:47;34.20;90.90
1546;DHT22;766;51.502;9.752;2022-07-25T11:50:28;34.30;90.40
1546;DHT22;766;51.502;9.752;2022-07-25T11:52:59;34.50;90.40
1546;DHT22;766;51.502;9.752;2022-07-25T11:55:29;34.50;91.00
1546;DHT22;766;51.502;9.752;2022-07-25T11:58:00;34.40;90.30
1546;DHT22;766;51.502;9.752;2022-07-25T12:00:33;34.80;90.30
1546;DHT22;766;51.502;9.752;2022-07-25T12:03:06;35.20;90.30
1546;DHT22;766;51.502;9.752;2022-07-25T12:05:48;36.00;89.80
1546;DHT22;766;51.502;9.752;2022-07-25T12:08:19;35.70;89.60
1546;DHT22;766;51.502;9.752;2022-07-25T12:10:53;35.50;88.50
1546;DHT22;766;51.502;9.752;2022-07-25T12:13:23;35.10;88.50
1546;DHT22;766;51.502;9.752;2022-07-25T12:15:52;35.10;87.30
1546;DHT22;766;51.502;9.752;2022-07-25T12:18:27;35.10;88.80
1546;DHT22;766;51.502;9.752;2022-07-25T12:20:57;34.80;87.40
1546;DHT22;766;51.502;9.752;2022-07-25T12:23:25;34.20;89.70
1546;DHT22;766;51.502;9.752;2022-07-25T12:25:54;33.90;88.50
1546;DHT22;766;51.502;9.752;2022-07-25T12:28:23;33.50;89.80
1546;DHT22;766;51.502;9.752;2022-07-25T12:30:51;32.60;90.20
1546;DHT22;766;51.502;9.752;2022-07-25T12:33:23;32.50;90.90
1546;DHT22;766;51.502;9.752;2022-07-25T12:35:51;32.60;90.80
1546;DHT22;766;51.502;9.752;2022-07-25T12:38:21;33.10;90.20
1546;DHT22;766;51.502;9.752;2022-07-25T12:40:49;33.10;90.60
1546;DHT22;766;51.502;9.752;2022-07-25T12:43:18;33.40;91.00
1546;DHT22;766;51.502;9.752;2022-07-25T12:45:47;33.50;90.20
1546;DHT22;766;51.502;9.752;2022-07-25T12:48:16;33.00;90.10
1546;DHT22;766;51.502;9.752;2022-07-25T12:50:46;32.90;90.30
1546;DHT22;766;51.502;9.752;2022-07-25T12:53:14;32.60;90.00
1546;DHT22;766;51.502;9.752;2022-07-25T12:55:46;32.30;90.50
1546;DHT22;766;51.502;9.752;2022-07-25T12:58:15;32.30;90.50
1546;DHT22;766;51.502;9.752;2022-07-25T13:00:43;32.30;91.00
1546;DHT22;766;51.502;9.752;2022-07-25T13:03:12;32.30;91.10
1546;DHT22;766;51.502;9.752;2022-07-25T13:05:41;32.10;90.70
1546;DHT22;766;51.502;9.752;2022-07-25T13:08:09;32.10;91.20
1546;DHT22;766;51.502;9.752;2022-07-25T13:10:38;32.10;91.60
1546;DHT22;766;51.502;9.752;2022-07-25T13:13:09;32.00;91.80
1546;DHT22;766;51.502;9.752;2022-07-25T13:15:39;32.00;91.80
1546;DHT22;766;51.502;9.752;2022-07-25T13:18:09;31.90;99.60
1546;DHT22;766;51.502;9.752;2022-07-25T13:20:38;29.40;99.90
1546;DHT22;766;51.502;9.752;2022-07-25T13:23:08;26.30;99.90
1546;DHT22;766;51.502;9.752;2022-07-25T13:25:36;23.50;99.90
1546;DHT22;766;51.502;9.752;2022-07-25T13:28:04;22.60;99.90
1546;DHT22;766;51.502;9.752;2022-07-25T13:30:38;22.60;99.90
1546;DHT22;766;51.502;9.752;2022-07-25T13:33:06;22.40;99.90
1546;DHT22;766;51.502;9.752;2022-07-25T13:35:36;22.30;99.90
1546;DHT22;766;51.502;9.752;2022-07-25T13:38:08;22.30;99.90
1546;DHT22;766;51.502;9.752;2022-07-25T13:40:38;22.20;99.90
1546;DHT22;766;51.502;9.752;2022-07-25T13:43:08;22.30;99.90
1546;DHT22;766;51.502;9.752;2022-07-25T13:45:39;22.30;99.90
1546;DHT22;766;51.502;9.752;2022-07-25T13:48:08;22.30;99.90
1546;DHT22;766;51.502;9.752;2022-07-25T13:50:56;22.20;99.90
1546;DHT22;766;51.502;9.752;2022-07-25T13:53:26;22.40;99.90
1546;DHT22;766;51.502;9.752;2022-07-25T13:55:57;22.60;99.90
1546;DHT22;766;51.502;9.752;2022-07-25T13:58:26;22.60;99.90
1546;DHT22;766;51.502;9.752;2022-07-25T14:00:57;23.00;99.90
1546;DHT22;766;51.502;9.752;2022-07-25T14:03:26;23.50;99.90
1546;DHT22;766;51.502;9.752;2022-07-25T14:05:55;23.60;99.90
1546;DHT22;766;51.502;9.752;2022-07-25T14:08:24;23.70;99.90
1546;DHT22;766;51.502;9.752;2022-07-25T14:10:53;23.60;99.90
1546;DHT22;766;51.502;9.752;2022-07-25T14:13:21;23.50;99.90
1546;DHT22;766;51.502;9.752;2022-07-25T14:15:50;23.60;99.90
1546;DHT22;766;51.502;9.752;2022-07-25T14:18:20;23.70;99.90
1546;DHT22;766;51.502;9.752;2022-07-25T14:20:49;23.80;99.90
1546;DHT22;766;51.502;9.752;2022-07-25T14:23:18;23.70;99.90
1546;DHT22;766;51.502;9.752;2022-07-25T14:25:49;23.80;99.90
1546;DHT22;766;51.502;9.752;2022-07-25T14:28:18;23.80;99.90
1546;DHT22;766;51.502;9.752;2022-07-25T14:30:47;23.90;99.90
1546;DHT22;766;51.502;9.752;2022-07-25T14:33:16;24.10;99.90
1546;DHT22;766;51.502;9.752;2022-07-25T14:35:47;24.30;99.90
1546;DHT22;766;51.502;9.752;2022-07-25T14:38:17;24.30;99.90
1546;DHT22;766;51.502;9.752;2022-07-25T14:40:48;24.20;99.90
1546;DHT22;766;51.502;9.752;2022-07-25T14:43:16;24.30;99.90
1546;DHT22;766;51.502;9.752;2022-07-25T14:45:46;24.40;99.90
1546;DHT22;766;51.502;9.752;2022-07-25T14:48:14;24.50;99.90
1546;DHT22;766;51.502;9.752;2022-07-25T14:50:44;24.70;99.90
1546;DHT22;766;51.502;9.752;2022-07-25T14:53:15;24.90;99.90
1546;DHT22;766;51.502;9.752;2022-07-25T14:55:44;24.80;99.90
1546;DHT22;766;51.502;9.752;2022-07-25T14:58:13;24.80;99.90
1546;DHT22;766;51.502;9.752;2022-07-25T15:00:41;24.80;99.90
1546;DHT22;766;51.502;9.752;2022-07-25T15:03:11;24.90;99.90
1546;DHT22;766;51.502;9.752;2022-07-25T15:05:41;24.80;99.90
1546;DHT22;766;51.502;9.752;2022-07-25T15:08:10;24.80;99.90
1546;DHT22;766;51.502;9.752;2022-07-25T15:10:41;24.90;99.90
1546;DHT22;766;51.502;9.752;2022-07-25T15:13:09;24.90;99.90
1546;DHT22;766;51.502;9.752;2022-07-25T15:16:00;24.80;99.90
1546;DHT22;766;51.502;9.752;2022-07-25T15:18:29;24.80;99.90
1546;DHT22;766;51.502;9.752;2022-07-25T15:20:57;24.80;99.90
1546;DHT22;766;51.502;9.752;2022-07-25T15:23:26;24.80;99.90
1546;DHT22;766;51.502;9.752;2022-07-25T15:25:58;24.80;99.90
1546;DHT22;766;51.502;9.752;2022-07-25T15:28:30;24.90;99.90
1546;DHT22;766;51.502;9.752;2022-07-25T15:30:59;24.90;99.90
1546;DHT22;766;51.502;9.752;2022-07-25T15:33:27;25.00;99.90
1546;DHT22;766;51.502;9.752;2022-07-25T15:35:56;25.00;99.90
1546;DHT22;766;51.502;9.752;2022-07-25T15:38:26;25.10;99.90
1546;DHT22;766;51.502;9.752;2022-07-25T15:40:58;25.20;99.90
1546;DHT22;766;51.502;9.752;2022-07-25T15:43:26;25.30;99.90
1546;DHT22;766;51.502;9.752;2022-07-25T15:45:54;25.30;99.90
1546;DHT22;766;51.502;9.752;2022-07-25T15:48:26;25.30;99.90
1546;DHT22;766;51.502;9.752;2022-07-25T15:50:55;25.30;99.90
1546;DHT22;766;51.502;9.752;2022-07-25T15:53:24;25.30;99.90
1546;DHT22;766;51.502;9.752;2022-07-25T15:55:56;25.50;99.90
1546;DHT22;766;51.502;9.752;2022-07-25T15:58:26;25.50;99.90
1546;DHT22;766;51.502;9.752;2022-07-25T16:00:55;25.50;99.90
1546;DHT22;766;51.502;9.752;2022-07-25T16:03:23;25.50;99.90
1546;DHT22;766;51.502;9.752;2022-07-25T16:05:51;25.50;99.90
1546;DHT22;766;51.502;9.752;2022-07-25T16:08:22;25.60;99.90
1546;DHT22;766;51.502;9.752;2022-07-25T16:10:50;25.70;99.90
1546;DHT22;766;51.502;9.752;2022-07-25T16:13:19;25.80;99.90
1546;DHT22;766;51.502;9.752;2022-07-25T16:15:49;25.90;99.90
1546;DHT22;766;51.502;9.752;2022-07-25T16:18:17;26.00;99.90
1546;DHT22;766;51.502;9.752;2022-07-25T16:20:46;26.00;99.90
1546;DHT22;766;51.502;9.752;2022-07-25T16:23:15;26.00;99.90
1546;DHT22;766;51.502;9.752;2022-07-25T16:25:44;26.00;99.90
1546;DHT22;766;51.502;9.752;2022-07-25T16:28:13;26.20;99.90
1546;DHT22;766;51.502;9.752;2022-07-25T16:30:41;26.30;99.90
1546;DHT22;766;51.502;9.752;2022-07-25T16:33:11;26.20;99.90
1546;DHT22;766;51.502;9.752;2022-07-25T16:35:40;26.30;99.90
1546;DHT22;766;51.502;9.752;2022-07-25T16:38:09;26.40;99.90